sensor_id;sensor_type;location;lat;lon;timestamp;pressure;altitude;pressure_sealevel;temperature;humidity
42621;BME280;28252;53.336;-6.298;2023-01-29T00:00:26;102484.84;;;21.84;88.09
42621;BME280;28252;53.336;-6.298;2023-01-29T00:01:06;102477.59;;;21.85;88.62
42621;BME280;28252;53.336;-6.298;2023-01-29T00:01:40;102474.13;;;21.82;88.81
42621;BME280;28252;53.336;-6.298;2023-01-29T00:02:13;102476.00;;;21.82;87.74
42621;BME280;28252;53.336;-6.298;2023-01-29T00:02:52;102467.84;;;21.82;87.69
42621;BME280;28252;53.336;-6.298;2023-01-29T00:03:23;102461.59;;;21.81;87.51
42621;BME280;28252;53.336;-6.298;2023-01-29T00:04:01;102468.00;;;21.80;88.27
42621;BME280;28252;53.336;-6.298;2023-01-29T00:04:34;102460.88;;;21.79;88.46
42621;BME280;28252;53.336;-6.298;2023-01-29T00:05:06;102460.13;;;21.77;87.82
42621;BME280;28252;53.336;-6.298;2023-01-29T00:05:44;102465.56;;;21.77;88.00
42621;BME280;28252;53.336;-6.298;2023-01-29T00:06:19;102460.13;;;21.77;87.43
42621;BME280;28252;53.336;-6.298;2023-01-29T00:06:52;102462.13;;;21.75;88.46
42621;BME280;28252;53.336;-6.298;2023-01-29T00:07:30;102458.44;;;21.76;87.75
42621;BME280;28252;53.336;-6.298;2023-01-29T00:08:01;102469.28;;;21.76;88.02
42621;BME280;28252;53.336;-6.298;2023-01-29T00:08:36;102460.44;;;21.74;88.33
42621;BME280;28252;53.336;-6.298;2023-01-29T00:09:10;102462.41;;;21.72;88.38
42621;BME280;28252;53.336;-6.298;2023-01-29T00:09:44;102466.97;;;21.72;89.00
42621;BME280;28252;53.336;-6.298;2023-01-29T00:10:20;102463.41;;;21.71;87.88
42621;BME280;28252;53.336;-6.298;2023-01-29T00:10:58;102467.81;;;21.72;88.58
42621;BME280;28252;53.336;-6.298;2023-01-29T00:11:30;102457.97;;;21.71;88.21
42621;BME280;28252;53.336;-6.298;2023-01-29T00:12:02;102460.69;;;21.71;87.87
42621;BME280;28252;53.336;-6.298;2023-01-29T00:12:43;102461.69;;;21.70;88.46
42621;BME280;28252;53.336;-6.298;2023-01-29T00:13:19;102464.38;;;21.70;87.93
42621;BME280;28252;53.336;-6.298;2023-01-29T00:13:50;102463.53;;;21.70;88.49
42621;BME280;28252;53.336;-6.298;2023-01-29T00:14:27;102461.69;;;21.70;87.80
42621;BME280;28252;53.336;-6.298;2023-01-29T00:15:00;102459.81;;;21.71;88.55
42621;BME280;28252;53.336;-6.298;2023-01-29T00:15:33;102458.13;;;21.70;88.20
42621;BME280;28252;53.336;-6.298;2023-01-29T00:16:06;102451.84;;;21.69;88.05
42621;BME280;28252;53.336;-6.298;2023-01-29T00:16:38;102456.38;;;21.69;87.81
42621;BME280;28252;53.336;-6.298;2023-01-29T00:17:13;102457.28;;;21.69;87.71
42621;BME280;28252;53.336;-6.298;2023-01-29T00:17:47;102462.69;;;21.69;87.63
42621;BME280;28252;53.336;-6.298;2023-01-29T00:18:19;102461.81;;;21.69;87.67
42621;BME280;28252;53.336;-6.298;2023-01-29T00:18:52;102464.66;;;21.67;87.75
42621;BME280;28252;53.336;-6.298;2023-01-29T00:19:24;102458.38;;;21.67;87.79
42621;BME280;28252;53.336;-6.298;2023-01-29T00:19:55;102462.97;;;21.66;87.86
42621;BME280;28252;53.336;-6.298;2023-01-29T00:20:33;102471.09;;;21.66;87.64
42621;BME280;28252;53.336;-6.298;2023-01-29T00:21:09;102470.22;;;21.66;88.27
42621;BME280;28252;53.336;-6.298;2023-01-29T00:21:43;102466.66;;;21.65;87.67
42621;BME280;28252;53.336;-6.298;2023-01-29T00:22:16;102464.09;;;21.63;88.03
42621;BME280;28252;53.336;-6.298;2023-01-29T00:22:47;102472.06;;;21.65;87.98
42621;BME280;28252;53.336;-6.298;2023-01-29T00:23:21;102464.97;;;21.64;87.69
42621;BME280;28252;53.336;-6.298;2023-01-29T00:23:58;102466.94;;;21.62;87.84
42621;BME280;28252;53.336;-6.298;2023-01-29T00:24:32;102462.50;;;21.61;89.23
42621;BME280;28252;53.336;-6.298;2023-01-29T00:25:03;102467.94;;;21.61;88.88
42621;BME280;28252;53.336;-6.298;2023-01-29T00:25:39;102457.34;;;21.58;89.24
42621;BME280;28252;53.336;-6.298;2023-01-29T00:26:11;102457.34;;;21.58;87.65
42621;BME280;28252;53.336;-6.298;2023-01-29T00:26:47;102463.63;;;21.58;88.03
42621;BME280;28252;53.336;-6.298;2023-01-29T00:27:24;102465.50;;;21.58;88.22
42621;BME280;28252;53.336;-6.298;2023-01-29T00:27:55;102456.66;;;21.56;89.24
42621;BME280;28252;53.336;-6.298;2023-01-29T00:28:30;102464.91;;;21.54;89.55
42621;BME280;28252;53.336;-6.298;2023-01-29T00:29:05;102461.50;;;21.52;89.31
42621;BME280;28252;53.336;-6.298;2023-01-29T00:29:39;102471.44;;;21.52;89.10
42621;BME280;28252;53.336;-6.298;2023-01-29T00:30:11;102462.59;;;21.50;89.67
42621;BME280;28252;53.336;-6.298;2023-01-29T00:30:45;102466.16;;;21.50;88.92
42621;BME280;28252;53.336;-6.298;2023-01-29T00:31:22;102466.03;;;21.52;88.60
42621;BME280;28252;53.336;-6.298;2023-01-29T00:31:55;102467.16;;;21.49;89.81
42621;BME280;28252;53.336;-6.298;2023-01-29T00:32:28;102463.75;;;21.47;89.85
42621;BME280;28252;53.336;-6.298;2023-01-29T00:33:04;102470.88;;;21.48;90.14
42621;BME280;28252;53.336;-6.298;2023-01-29T00:33:35;102466.47;;;21.47;89.75
42621;BME280;28252;53.336;-6.298;2023-01-29T00:34:07;102469.28;;;21.45;90.12
42621;BME280;28252;53.336;-6.298;2023-01-29T00:34:46;102464.81;;;21.44;89.72
42621;BME280;28252;53.336;-6.298;2023-01-29T00:35:20;102466.56;;;21.45;90.14
42621;BME280;28252;53.336;-6.298;2023-01-29T00:35:51;102468.53;;;21.43;89.80
42621;BME280;28252;53.336;-6.298;2023-01-29T00:36:29;102473.09;;;21.43;89.26
42621;BME280;28252;53.336;-6.298;2023-01-29T00:37:04;102468.53;;;21.43;88.85
42621;BME280;28252;53.336;-6.298;2023-01-29T00:37:46;102462.25;;;21.43;89.53
42621;BME280;28252;53.336;-6.298;2023-01-29T00:38:17;102469.41;;;21.44;88.90
42621;BME280;28252;53.336;-6.298;2023-01-29T00:38:59;102469.53;;;21.42;89.73
42621;BME280;28252;53.336;-6.298;2023-01-29T00:39:44;102471.22;;;21.43;88.78
42621;BME280;28252;53.336;-6.298;2023-01-29T00:40:17;102467.66;;;21.43;89.35
42621;BME280;28252;53.336;-6.298;2023-01-29T00:40:54;102473.94;;;21.43;89.08
42621;BME280;28252;53.336;-6.298;2023-01-29T00:41:44;102475.09;;;21.41;89.02
42621;BME280;28252;53.336;-6.298;2023-01-29T00:42:35;102473.50;;;21.38;89.78
42621;BME280;28252;53.336;-6.298;2023-01-29T00:43:25;102474.50;;;21.37;89.79
42621;BME280;28252;53.336;-6.298;2023-01-29T00:44:22;102483.63;;;21.36;89.75
42621;BME280;28252;53.336;-6.298;2023-01-29T00:45:14;102481.63;;;21.38;88.82
42621;BME280;28252;53.336;-6.298;2023-01-29T00:45:47;102483.47;;;21.38;88.45
42621;BME280;28252;53.336;-6.298;2023-01-29T00:46:20;102476.19;;;21.38;88.71
42621;BME280;28252;53.336;-6.298;2023-01-29T00:46:51;102481.63;;;21.38;89.28
42621;BME280;28252;53.336;-6.298;2023-01-29T00:47:25;102478.19;;;21.36;89.79
42621;BME280;28252;53.336;-6.298;2023-01-29T00:48:05;102469.34;;;21.34;89.39
42621;BME280;28252;53.336;-6.298;2023-01-29T00:48:38;102471.34;;;21.32;90.09
42621;BME280;28252;53.336;-6.298;2023-01-29T00:49:11;102469.34;;;21.34;89.35
42621;BME280;28252;53.336;-6.298;2023-01-29T00:49:42;102473.91;;;21.34;89.30
42621;BME280;28252;53.336;-6.298;2023-01-29T00:50:15;102467.63;;;21.33;89.33
42621;BME280;28252;53.336;-6.298;2023-01-29T00:50:46;102466.75;;;21.33;88.61
42621;BME280;28252;53.336;-6.298;2023-01-29T00:51:17;102476.75;;;21.32;88.69
42621;BME280;28252;53.336;-6.298;2023-01-29T00:51:50;102472.19;;;21.33;88.96
42621;BME280;28252;53.336;-6.298;2023-01-29T00:52:40;102470.47;;;21.32;88.98
42621;BME280;28252;53.336;-6.298;2023-01-29T00:53:14;102465.91;;;21.32;89.09
42621;BME280;28252;53.336;-6.298;2023-01-29T00:53:47;102475.88;;;21.32;88.91
42621;BME280;28252;53.336;-6.298;2023-01-29T00:54:20;102473.34;;;21.30;88.84
42621;BME280;28252;53.336;-6.298;2023-01-29T00:54:52;102476.03;;;21.30;88.92
42621;BME280;28252;53.336;-6.298;2023-01-29T00:55:25;102469.75;;;21.30;88.84
42621;BME280;28252;53.336;-6.298;2023-01-29T00:56:01;102468.16;;;21.27;88.83
42621;BME280;28252;53.336;-6.298;2023-01-29T00:56:33;102461.03;;;21.26;88.73
42621;BME280;28252;53.336;-6.298;2023-01-29T00:57:07;102468.16;;;21.27;88.96
42621;BME280;28252;53.336;-6.298;2023-01-29T00:57:41;102467.47;;;21.25;88.62
42621;BME280;28252;53.336;-6.298;2023-01-29T00:58:15;102454.75;;;21.25;88.81
42621;BME280;28252;53.336;-6.298;2023-01-29T00:58:54;102463.72;;;21.26;88.59
42621;BME280;28252;53.336;-6.298;2023-01-29T00:59:30;102457.59;;;21.24;88.68
42621;BME280;28252;53.336;-6.298;2023-01-29T01:00:07;102460.31;;;21.24;88.73
42621;BME280;28252;53.336;-6.298;2023-01-29T01:00:43;102455.88;;;21.23;88.44
42621;BME280;28252;53.336;-6.298;2023-01-29T01:01:15;102454.16;;;21.22;88.75
42621;BME280;28252;53.336;-6.298;2023-01-29T01:01:49;102447.03;;;21.21;88.90
42621;BME280;28252;53.336;-6.298;2023-01-29T01:02:40;102452.44;;;21.21;88.43
42621;BME280;28252;53.336;-6.298;2023-01-29T01:03:35;102456.16;;;21.20;88.72
42621;BME280;28252;53.336;-6.298;2023-01-29T01:04:16;102451.72;;;21.19;88.60
42621;BME280;28252;53.336;-6.298;2023-01-29T01:04:49;102450.88;;;21.18;88.55
42621;BME280;28252;53.336;-6.298;2023-01-29T01:05:20;102449.00;;;21.19;88.51
42621;BME280;28252;53.336;-6.298;2023-01-29T01:06:05;102447.28;;;21.18;88.61
42621;BME280;28252;53.336;-6.298;2023-01-29T01:06:37;102451.00;;;21.17;88.63
42621;BME280;28252;53.336;-6.298;2023-01-29T01:07:11;102449.28;;;21.16;88.83
42621;BME280;28252;53.336;-6.298;2023-01-29T01:07:43;102452.84;;;21.16;88.71
42621;BME280;28252;53.336;-6.298;2023-01-29T01:08:20;102447.56;;;21.15;88.71
42621;BME280;28252;53.336;-6.298;2023-01-29T01:09:12;102448.56;;;21.14;88.76
42621;BME280;28252;53.336;-6.298;2023-01-29T01:10:04;102443.25;;;21.12;88.57
42621;BME280;28252;53.336;-6.298;2023-01-29T01:10:59;102444.41;;;21.10;88.90
42621;BME280;28252;53.336;-6.298;2023-01-29T01:11:33;102440.69;;;21.11;88.24
42621;BME280;28252;53.336;-6.298;2023-01-29T01:12:05;102446.97;;;21.11;88.45
42621;BME280;28252;53.336;-6.298;2023-01-29T01:12:36;102439.00;;;21.10;88.82
42621;BME280;28252;53.336;-6.298;2023-01-29T01:13:09;102436.41;;;21.08;88.84
42621;BME280;28252;53.336;-6.298;2023-01-29T01:13:43;102440.09;;;21.07;88.86
42621;BME280;28252;53.336;-6.298;2023-01-29T01:14:16;102445.53;;;21.07;88.67
42621;BME280;28252;53.336;-6.298;2023-01-29T01:14:52;102440.09;;;21.07;88.40
42621;BME280;28252;53.336;-6.298;2023-01-29T01:15:31;102440.94;;;21.07;88.48
42621;BME280;28252;53.336;-6.298;2023-01-29T01:16:07;102445.53;;;21.07;88.15
42621;BME280;28252;53.336;-6.298;2023-01-29T01:16:39;102442.81;;;21.07;88.29
42621;BME280;28252;53.336;-6.298;2023-01-29T01:17:12;102450.09;;;21.06;88.35
42621;BME280;28252;53.336;-6.298;2023-01-29T01:17:51;102440.22;;;21.05;88.49
42621;BME280;28252;53.336;-6.298;2023-01-29T01:18:27;102445.78;;;21.04;88.13
42621;BME280;28252;53.336;-6.298;2023-01-29T01:18:58;102452.06;;;21.04;88.14
42621;BME280;28252;53.336;-6.298;2023-01-29T01:19:32;102448.34;;;21.05;88.37
42621;BME280;28252;53.336;-6.298;2023-01-29T01:20:06;102442.09;;;21.05;88.15
42621;BME280;28252;53.336;-6.298;2023-01-29T01:20:39;102439.50;;;21.03;88.58
42621;BME280;28252;53.336;-6.298;2023-01-29T01:21:15;102443.19;;;21.02;88.04
42621;BME280;28252;53.336;-6.298;2023-01-29T01:21:46;102443.19;;;21.02;88.22
42621;BME280;28252;53.336;-6.298;2023-01-29T01:22:18;102438.78;;;21.01;88.15
42621;BME280;28252;53.336;-6.298;2023-01-29T01:22:54;102439.78;;;21.00;88.38
42621;BME280;28252;53.336;-6.298;2023-01-29T01:23:29;102443.34;;;21.01;88.33
42621;BME280;28252;53.336;-6.298;2023-01-29T01:24:05;102438.94;;;21.00;88.25
42621;BME280;28252;53.336;-6.298;2023-01-29T01:24:38;102435.34;;;20.99;88.09
42621;BME280;28252;53.336;-6.298;2023-01-29T01:25:13;102442.63;;;20.99;88.34
42621;BME280;28252;53.336;-6.298;2023-01-29T01:25:46;102442.63;;;20.99;88.24
42621;BME280;28252;53.336;-6.298;2023-01-29T01:26:17;102432.78;;;20.98;88.25
42621;BME280;28252;53.336;-6.298;2023-01-29T01:26:48;102428.34;;;20.97;88.02
42621;BME280;28252;53.336;-6.298;2023-01-29T01:27:24;102426.63;;;20.96;88.59
42621;BME280;28252;53.336;-6.298;2023-01-29T01:27:58;102431.19;;;20.95;88.61
42621;BME280;28252;53.336;-6.298;2023-01-29T01:28:32;102429.47;;;20.94;88.43
42621;BME280;28252;53.336;-6.298;2023-01-29T01:29:07;102424.03;;;20.94;88.60
42621;BME280;28252;53.336;-6.298;2023-01-29T01:29:41;102424.91;;;20.95;88.04
42621;BME280;28252;53.336;-6.298;2023-01-29T01:30:17;102429.47;;;20.94;88.46
42621;BME280;28252;53.336;-6.298;2023-01-29T01:30:50;102424.03;;;20.94;88.33
42621;BME280;28252;53.336;-6.298;2023-01-29T01:31:26;102427.75;;;20.93;88.50
42621;BME280;28252;53.336;-6.298;2023-01-29T01:31:59;102416.94;;;20.93;88.37
42621;BME280;28252;53.336;-6.298;2023-01-29T01:32:33;102424.03;;;20.94;88.45
42621;BME280;28252;53.336;-6.298;2023-01-29T01:33:06;102427.75;;;20.93;88.42
42621;BME280;28252;53.336;-6.298;2023-01-29T01:33:41;102427.75;;;20.93;88.26
42621;BME280;28252;53.336;-6.298;2023-01-29T01:34:12;102425.19;;;20.92;87.81
42621;BME280;28252;53.336;-6.298;2023-01-29T01:34:48;102426.16;;;20.90;88.09
42621;BME280;28252;53.336;-6.298;2023-01-29T01:35:24;102419.91;;;20.90;88.25
42621;BME280;28252;53.336;-6.298;2023-01-29T01:36:00;102418.91;;;20.91;87.94
42621;BME280;28252;53.336;-6.298;2023-01-29T01:36:35;102419.91;;;20.90;88.24
42621;BME280;28252;53.336;-6.298;2023-01-29T01:37:06;102416.34;;;20.89;88.05
42621;BME280;28252;53.336;-6.298;2023-01-29T01:37:44;102415.47;;;20.89;87.96
42621;BME280;28252;53.336;-6.298;2023-01-29T01:38:19;102409.19;;;20.88;88.21
42621;BME280;28252;53.336;-6.298;2023-01-29T01:38:52;102420.03;;;20.88;88.13
42621;BME280;28252;53.336;-6.298;2023-01-29T01:39:27;102421.88;;;20.88;88.25
42621;BME280;28252;53.336;-6.298;2023-01-29T01:40:00;102418.34;;;20.87;87.96
42621;BME280;28252;53.336;-6.298;2023-01-29T01:40:31;102422.88;;;20.87;88.24
42621;BME280;28252;53.336;-6.298;2023-01-29T01:42:30;102416.72;;;20.85;87.99
42621;BME280;28252;53.336;-6.298;2023-01-29T01:43:08;102414.03;;;20.85;88.41
42621;BME280;28252;53.336;-6.298;2023-01-29T01:43:53;102412.28;;;20.84;88.34
42621;BME280;28252;53.336;-6.298;2023-01-29T01:45:18;102418.00;;;20.81;88.24
42621;BME280;28252;53.336;-6.298;2023-01-29T01:45:52;102418.97;;;20.80;88.38
42621;BME280;28252;53.336;-6.298;2023-01-29T01:46:28;102411.84;;;20.79;88.61
42621;BME280;28252;53.336;-6.298;2023-01-29T01:46:59;102410.84;;;20.80;88.57
42621;BME280;28252;53.336;-6.298;2023-01-29T01:47:45;102405.44;;;20.80;88.40
42621;BME280;28252;53.336;-6.298;2023-01-29T01:48:23;102414.53;;;20.79;88.60
42621;BME280;28252;53.336;-6.298;2023-01-29T01:49:01;102411.84;;;20.79;88.10
42621;BME280;28252;53.336;-6.298;2023-01-29T01:49:38;102411.09;;;20.77;88.43
42621;BME280;28252;53.336;-6.298;2023-01-29T01:50:14;102411.09;;;20.77;88.52
42621;BME280;28252;53.336;-6.298;2023-01-29T01:51:20;102405.81;;;20.75;88.48
42621;BME280;28252;53.336;-6.298;2023-01-29T01:51:58;102406.84;;;20.74;88.41
42621;BME280;28252;53.336;-6.298;2023-01-29T01:52:38;102405.94;;;20.74;89.04
42621;BME280;28252;53.336;-6.298;2023-01-29T01:53:12;102402.53;;;20.71;88.73
42621;BME280;28252;53.336;-6.298;2023-01-29T01:54:20;102409.66;;;20.73;88.83
42621;BME280;28252;53.336;-6.298;2023-01-29T01:54:45;102408.78;;;20.72;88.55
42621;BME280;28252;53.336;-6.298;2023-01-29T01:55:18;102406.09;;;20.72;88.72
42621;BME280;28252;53.336;-6.298;2023-01-29T01:55:51;102408.94;;;20.70;88.92
42621;BME280;28252;53.336;-6.298;2023-01-29T01:56:28;102408.94;;;20.70;88.62
42621;BME280;28252;53.336;-6.298;2023-01-29T01:57:11;102407.22;;;20.69;88.74
42621;BME280;28252;53.336;-6.298;2023-01-29T01:57:49;102409.09;;;20.69;88.75
42621;BME280;28252;53.336;-6.298;2023-01-29T01:58:29;102411.78;;;20.69;88.70
42621;BME280;28252;53.336;-6.298;2023-01-29T01:59:01;102409.22;;;20.67;88.41
42621;BME280;28252;53.336;-6.298;2023-01-29T01:59:35;102415.59;;;20.66;88.93
42621;BME280;28252;53.336;-6.298;2023-01-29T02:00:08;102412.91;;;20.66;88.80
42621;BME280;28252;53.336;-6.298;2023-01-29T02:00:50;102417.47;;;20.66;88.82
42621;BME280;28252;53.336;-6.298;2023-01-29T02:01:25;102413.03;;;20.65;88.58
42621;BME280;28252;53.336;-6.298;2023-01-29T02:02:00;102417.59;;;20.64;89.07
42621;BME280;28252;53.336;-6.298;2023-01-29T02:02:52;102415.00;;;20.63;89.12
42621;BME280;28252;53.336;-6.298;2023-01-29T02:03:49;102406.13;;;20.61;89.01
42621;BME280;28252;53.336;-6.298;2023-01-29T02:04:44;102411.56;;;20.61;89.20
42621;BME280;28252;53.336;-6.298;2023-01-29T02:05:35;102409.81;;;20.60;89.05
42621;BME280;28252;53.336;-6.298;2023-01-29T02:06:26;102407.25;;;20.58;88.90
42621;BME280;28252;53.336;-6.298;2023-01-29T02:07:18;102413.66;;;20.57;89.32
42621;BME280;28252;53.336;-6.298;2023-01-29T02:08:08;102407.38;;;20.57;88.87
42621;BME280;28252;53.336;-6.298;2023-01-29T02:09:14;102401.22;;;20.55;89.22
42621;BME280;28252;53.336;-6.298;2023-01-29T02:10:09;102411.22;;;20.54;89.24
42621;BME280;28252;53.336;-6.298;2023-01-29T02:10:45;102414.91;;;20.53;89.33
42621;BME280;28252;53.336;-6.298;2023-01-29T02:11:17;102412.19;;;20.53;89.25
42621;BME280;28252;53.336;-6.298;2023-01-29T02:11:50;102414.03;;;20.52;89.36
42621;BME280;28252;53.336;-6.298;2023-01-29T02:12:26;102413.19;;;20.52;89.28
42621;BME280;28252;53.336;-6.298;2023-01-29T02:13:04;102415.19;;;20.50;89.25
42621;BME280;28252;53.336;-6.298;2023-01-29T02:13:40;102415.03;;;20.51;88.99
42621;BME280;28252;53.336;-6.298;2023-01-29T02:14:14;102404.34;;;20.50;89.09
42621;BME280;28252;53.336;-6.298;2023-01-29T02:15:54;102412.59;;;20.48;89.16
42621;BME280;28252;53.336;-6.298;2023-01-29T02:16:29;102414.56;;;20.46;90.31
42621;BME280;28252;53.336;-6.298;2023-01-29T02:17:05;102413.72;;;20.46;89.58
42621;BME280;28252;53.336;-6.298;2023-01-29T02:17:38;102412.84;;;20.45;89.27
42621;BME280;28252;53.336;-6.298;2023-01-29T02:18:18;102413.72;;;20.46;89.49
42621;BME280;28252;53.336;-6.298;2023-01-29T02:18:49;102410.28;;;20.44;89.97
42621;BME280;28252;53.336;-6.298;2023-01-29T02:19:31;102409.44;;;20.43;89.83
42621;BME280;28252;53.336;-6.298;2023-01-29T02:21:01;102411.25;;;20.43;89.34
42621;BME280;28252;53.336;-6.298;2023-01-29T02:25:56;102392.84;;;20.37;89.93
42621;BME280;28252;53.336;-6.298;2023-01-29T02:29:17;102387.69;;;20.33;89.80
42621;BME280;28252;53.336;-6.298;2023-01-29T02:30:03;102391.38;;;20.32;90.22
42621;BME280;28252;53.336;-6.298;2023-01-29T02:30:49;102391.38;;;20.32;90.33
42621;BME280;28252;53.336;-6.298;2023-01-29T02:31:29;102382.53;;;20.30;90.26
42621;BME280;28252;53.336;-6.298;2023-01-29T02:32:40;102391.50;;;20.31;90.41
42621;BME280;28252;53.336;-6.298;2023-01-29T02:34:05;102379.09;;;20.28;90.71
42621;BME280;28252;53.336;-6.298;2023-01-29T02:34:48;102381.69;;;20.30;90.54
42621;BME280;28252;53.336;-6.298;2023-01-29T02:37:31;102379.38;;;20.25;90.43
42621;BME280;28252;53.336;-6.298;2023-01-29T02:38:48;102375.81;;;20.25;90.68
42621;BME280;28252;53.336;-6.298;2023-01-29T02:39:59;102375.94;;;20.23;90.41
42621;BME280;28252;53.336;-6.298;2023-01-29T02:40:41;102375.94;;;20.23;90.48
42621;BME280;28252;53.336;-6.298;2023-01-29T02:41:14;102366.97;;;20.23;90.85
42621;BME280;28252;53.336;-6.298;2023-01-29T02:43:08;102355.38;;;20.21;90.58
42621;BME280;28252;53.336;-6.298;2023-01-29T02:44:04;102359.94;;;20.20;91.07
42621;BME280;28252;53.336;-6.298;2023-01-29T02:45:29;102369.03;;;20.19;90.52
42621;BME280;28252;53.336;-6.298;2023-01-29T02:46:48;102351.13;;;20.18;90.74
42621;BME280;28252;53.336;-6.298;2023-01-29T02:47:25;102355.69;;;20.18;90.70
42621;BME280;28252;53.336;-6.298;2023-01-29T02:48:07;102356.53;;;20.18;90.93
42621;BME280;28252;53.336;-6.298;2023-01-29T02:48:56;102346.69;;;20.17;90.85
42621;BME280;28252;53.336;-6.298;2023-01-29T02:49:43;102351.13;;;20.18;90.65
42621;BME280;28252;53.336;-6.298;2023-01-29T02:51:17;102344.97;;;20.16;90.72
42621;BME280;28252;53.336;-6.298;2023-01-29T02:52:06;102352.22;;;20.15;90.71
42621;BME280;28252;53.336;-6.298;2023-01-29T02:52:44;102355.06;;;20.14;91.42
42621;BME280;28252;53.336;-6.298;2023-01-29T02:53:45;102350.53;;;20.14;90.83
42621;BME280;28252;53.336;-6.298;2023-01-29T02:54:19;102349.63;;;20.14;91.08
42621;BME280;28252;53.336;-6.298;2023-01-29T02:56:01;102348.91;;;20.12;91.21
42621;BME280;28252;53.336;-6.298;2023-01-29T02:56:38;102349.94;;;20.11;90.88
42621;BME280;28252;53.336;-6.298;2023-01-29T02:57:58;102341.81;;;20.11;91.03
42621;BME280;28252;53.336;-6.298;2023-01-29T02:58:41;102339.09;;;20.11;91.06
42621;BME280;28252;53.336;-6.298;2023-01-29T02:59:20;102338.22;;;20.10;91.06
42621;BME280;28252;53.336;-6.298;2023-01-29T02:59:54;102337.38;;;20.10;91.01
42621;BME280;28252;53.336;-6.298;2023-01-29T03:00:27;102339.22;;;20.09;91.35
42621;BME280;28252;53.336;-6.298;2023-01-29T03:01:57;102333.94;;;20.08;91.08
42621;BME280;28252;53.336;-6.298;2023-01-29T03:03:41;102331.38;;;20.06;91.29
42621;BME280;28252;53.336;-6.298;2023-01-29T03:04:21;102343.03;;;20.07;91.33
42621;BME280;28252;53.336;-6.298;2023-01-29T03:04:57;102333.34;;;20.04;91.43
42621;BME280;28252;53.336;-6.298;2023-01-29T03:05:30;102337.75;;;20.05;91.09
42621;BME280;28252;53.336;-6.298;2023-01-29T03:06:08;102334.19;;;20.05;91.26
42621;BME280;28252;53.336;-6.298;2023-01-29T03:06:56;102336.06;;;20.04;91.33
42621;BME280;28252;53.336;-6.298;2023-01-29T03:07:32;102331.63;;;20.03;91.40
42621;BME280;28252;53.336;-6.298;2023-01-29T03:09:23;102331.75;;;20.02;91.34
42621;BME280;28252;53.336;-6.298;2023-01-29T03:09:58;102339.88;;;20.02;91.67
42621;BME280;28252;53.336;-6.298;2023-01-29T03:10:36;102332.75;;;20.01;91.54
42621;BME280;28252;53.336;-6.298;2023-01-29T03:11:09;102332.75;;;20.01;91.60
42621;BME280;28252;53.336;-6.298;2023-01-29T03:11:57;102333.72;;;20.00;91.32
42621;BME280;28252;53.336;-6.298;2023-01-29T03:12:35;102336.44;;;20.00;91.70
42621;BME280;28252;53.336;-6.298;2023-01-29T03:13:12;102336.44;;;20.00;91.52
42621;BME280;28252;53.336;-6.298;2023-01-29T03:14:34;102332.13;;;19.97;91.74
42621;BME280;28252;53.336;-6.298;2023-01-29T03:15:28;102327.84;;;19.94;91.45
42621;BME280;28252;53.336;-6.298;2023-01-29T03:17:11;102333.25;;;19.94;91.73
42621;BME280;28252;53.336;-6.298;2023-01-29T03:17:25;102330.56;;;19.94;91.72
42621;BME280;28252;53.336;-6.298;2023-01-29T03:18:11;102334.09;;;19.95;91.35
42621;BME280;28252;53.336;-6.298;2023-01-29T03:18:50;102331.53;;;19.93;91.98
42621;BME280;28252;53.336;-6.298;2023-01-29T03:19:43;102328.81;;;19.93;91.42
42621;BME280;28252;53.336;-6.298;2023-01-29T03:20:31;102332.53;;;19.92;91.63
42621;BME280;28252;53.336;-6.298;2023-01-29T03:21:04;102322.69;;;19.91;91.49
42621;BME280;28252;53.336;-6.298;2023-01-29T03:22:00;102329.09;;;19.90;91.48
42621;BME280;28252;53.336;-6.298;2023-01-29T03:22:36;102329.97;;;19.91;92.27
42621;BME280;28252;53.336;-6.298;2023-01-29T03:23:12;102325.53;;;19.90;91.48
42621;BME280;28252;53.336;-6.298;2023-01-29T03:23:45;102329.09;;;19.90;91.50
42621;BME280;28252;53.336;-6.298;2023-01-29T03:24:38;102331.94;;;19.89;91.62
42621;BME280;28252;53.336;-6.298;2023-01-29T03:25:30;102329.22;;;19.89;91.38
42621;BME280;28252;53.336;-6.298;2023-01-29T03:26:23;102328.34;;;19.88;91.47
42621;BME280;28252;53.336;-6.298;2023-01-29T03:27:17;102325.66;;;19.88;91.51
42621;BME280;28252;53.336;-6.298;2023-01-29T03:28:09;102324.94;;;19.86;91.75
42621;BME280;28252;53.336;-6.298;2023-01-29T03:29:02;102330.34;;;19.86;91.42
42621;BME280;28252;53.336;-6.298;2023-01-29T03:29:54;102325.91;;;19.85;91.40
42621;BME280;28252;53.336;-6.298;2023-01-29T03:31:06;102319.66;;;19.85;91.76
42621;BME280;28252;53.336;-6.298;2023-01-29T03:32:01;102319.78;;;19.83;91.76
42621;BME280;28252;53.336;-6.298;2023-01-29T03:32:38;102327.88;;;19.83;91.39
42621;BME280;28252;53.336;-6.298;2023-01-29T03:33:10;102322.47;;;19.83;91.74
42621;BME280;28252;53.336;-6.298;2023-01-29T03:33:44;102323.47;;;19.82;91.43
42621;BME280;28252;53.336;-6.298;2023-01-29T03:34:20;102320.78;;;19.82;91.74
42621;BME280;28252;53.336;-6.298;2023-01-29T03:35:08;102319.03;;;19.81;91.45
42621;BME280;28252;53.336;-6.298;2023-01-29T03:35:48;102320.03;;;19.80;91.46
42621;BME280;28252;53.336;-6.298;2023-01-29T03:36:33;102314.59;;;19.80;91.53
42621;BME280;28252;53.336;-6.298;2023-01-29T03:37:46;102323.72;;;19.79;91.62
42621;BME280;28252;53.336;-6.298;2023-01-29T03:38:18;102323.72;;;19.79;91.76
42621;BME280;28252;53.336;-6.298;2023-01-29T03:38:53;102320.19;;;19.78;91.73
42621;BME280;28252;53.336;-6.298;2023-01-29T03:39:27;102318.44;;;19.77;91.89
42621;BME280;28252;53.336;-6.298;2023-01-29T03:40:03;102322.00;;;19.78;91.65
42621;BME280;28252;53.336;-6.298;2023-01-29T03:42:16;102317.72;;;19.75;91.57
42621;BME280;28252;53.336;-6.298;2023-01-29T03:42:58;102311.44;;;19.75;92.35
42621;BME280;28252;53.336;-6.298;2023-01-29T03:44:32;102307.88;;;19.74;91.61
42621;BME280;28252;53.336;-6.298;2023-01-29T03:45:14;102315.09;;;19.74;91.78